sensor_id;sensor_type;location;lat;lon;timestamp;pressure;altitude;pressure_sealevel;temperature;humidity
42847;BME280;28495;49.916;14.536;2023-04-09T00:03:49;97585.34;;;4.80;67.42
42847;BME280;28495;49.916;14.536;2023-04-09T00:09:10;97582.91;;;4.77;67.31
42847;BME280;28495;49.916;14.536;2023-04-09T00:14:31;97588.81;;;4.63;67.11
42847;BME280;28495;49.916;14.536;2023-04-09T00:19:51;97588.16;;;4.59;67.39
42847;BME280;28495;49.916;14.536;2023-04-09T00:25:12;97589.66;;;4.63;67.81
42847;BME280;28495;49.916;14.536;2023-04-09T00:30:33;97576.00;;;4.61;67.53
42847;BME280;28495;49.916;14.536;2023-04-09T00:35:54;97587.41;;;4.57;67.53
42847;BME280;28495;49.916;14.536;2023-04-09T00:41:17;97581.41;;;4.56;67.39
42847;BME280;28495;49.916;14.536;2023-04-09T00:46:37;97588.50;;;4.53;67.51
42847;BME280;28495;49.916;14.536;2023-04-09T00:51:59;97581.31;;;4.58;67.87
42847;BME280;28495;49.916;14.536;2023-04-09T00:57:21;97584.31;;;4.50;67.27
42847;BME280;28495;49.916;14.536;2023-04-09T01:02:42;97580.16;;;4.48;67.71
42847;BME280;28495;49.916;14.536;2023-04-09T01:08:18;97566.38;;;4.31;67.50
42847;BME280;28495;49.916;14.536;2023-04-09T01:20:20;97568.84;;;4.17;67.71
42847;BME280;28495;49.916;14.536;2023-04-09T01:31:37;97583.75;;;4.11;67.79
42847;BME280;28495;49.916;14.536;2023-04-09T01:37:01;97590.50;;;4.14;67.74
42847;BME280;28495;49.916;14.536;2023-04-09T01:42:23;97575.19;;;4.11;68.14
42847;BME280;28495;49.916;14.536;2023-04-09T01:47:45;97582.16;;;4.09;68.13
42847;BME280;28495;49.916;14.536;2023-04-09T01:53:06;97586.06;;;4.16;68.16
42847;BME280;28495;49.916;14.536;2023-04-09T01:58:27;97578.44;;;4.15;68.36
42847;BME280;28495;49.916;14.536;2023-04-09T02:04:16;97587.19;;;4.12;68.59
42847;BME280;28495;49.916;14.536;2023-04-09T02:09:40;97586.94;;;4.17;68.73
42847;BME280;28495;49.916;14.536;2023-04-09T02:15:02;97591.84;;;4.21;68.71
42847;BME280;28495;49.916;14.536;2023-04-09T02:20:23;97598.53;;;4.25;68.35
42847;BME280;28495;49.916;14.536;2023-04-09T02:25:44;97595.84;;;4.27;68.29
42847;BME280;28495;49.916;14.536;2023-04-09T02:31:05;97593.72;;;4.35;68.89
42847;BME280;28495;49.916;14.536;2023-04-09T02:36:26;97586.97;;;4.65;68.70
42847;BME280;28495;49.916;14.536;2023-04-09T02:41:48;97579.81;;;4.70;68.82
42847;BME280;28495;49.916;14.536;2023-04-09T02:47:08;97577.06;;;4.57;68.17
42847;BME280;28495;49.916;14.536;2023-04-09T02:52:31;97577.97;;;4.56;67.99
42847;BME280;28495;49.916;14.536;2023-04-09T02:57:52;97573.72;;;4.55;68.43
42847;BME280;28495;49.916;14.536;2023-04-09T03:03:12;97575.22;;;4.59;68.67
42847;BME280;28495;49.916;14.536;2023-04-09T03:08:34;97575.38;;;4.56;68.37
42847;BME280;28495;49.916;14.536;2023-04-09T03:13:55;97581.81;;;4.49;68.67
42847;BME280;28495;49.916;14.536;2023-04-09T03:19:16;97576.09;;;4.60;68.88
42847;BME280;28495;49.916;14.536;2023-04-09T03:24:37;97588.09;;;4.61;68.30
42847;BME280;28495;49.916;14.536;2023-04-09T03:29:59;97577.41;;;4.51;68.05
42847;BME280;28495;49.916;14.536;2023-04-09T03:35:28;97579.31;;;4.47;67.84
42847;BME280;28495;49.916;14.536;2023-04-09T03:40:51;97577.47;;;4.49;68.22
42847;BME280;28495;49.916;14.536;2023-04-09T03:46:16;97563.06;;;4.45;68.30
42847;BME280;28495;49.916;14.536;2023-04-09T03:51:40;97559.66;;;4.45;68.07
42847;BME280;28495;49.916;14.536;2023-04-09T03:57:01;97557.72;;;4.48;68.21
42847;BME280;28495;49.916;14.536;2023-04-09T04:02:24;97558.47;;;4.50;68.53
42847;BME280;28495;49.916;14.536;2023-04-09T04:07:54;97560.16;;;4.51;68.96
42847;BME280;28495;49.916;14.536;2023-04-09T04:13:20;97565.06;;;4.56;68.97
42847;BME280;28495;49.916;14.536;2023-04-09T04:18:47;97571.31;;;4.52;68.40
42847;BME280;28495;49.916;14.536;2023-04-09T04:24:10;97563.56;;;4.36;68.31
42847;BME280;28495;49.916;14.536;2023-04-09T04:29:32;97570.78;;;4.29;68.52
42847;BME280;28495;49.916;14.536;2023-04-09T04:34:54;97581.06;;;4.31;68.41
42847;BME280;28495;49.916;14.536;2023-04-09T04:40:18;97582.13;;;4.26;68.69
42847;BME280;28495;49.916;14.536;2023-04-09T04:45:42;97580.28;;;4.29;69.05
42847;BME280;28495;49.916;14.536;2023-04-09T04:51:04;97571.13;;;4.23;69.02
42847;BME280;28495;49.916;14.536;2023-04-09T04:56:33;97569.16;;;4.10;69.10
42847;BME280;28495;49.916;14.536;2023-04-09T05:02:00;97568.75;;;4.02;68.98
42847;BME280;28495;49.916;14.536;2023-04-09T05:07:25;97587.72;;;4.01;69.63
42847;BME280;28495;49.916;14.536;2023-04-09T05:12:49;97587.22;;;3.94;68.89
42847;BME280;28495;49.916;14.536;2023-04-09T05:18:27;97599.72;;;4.02;69.60
42847;BME280;28495;49.916;14.536;2023-04-09T05:23:48;97592.72;;;4.04;69.16
42847;BME280;28495;49.916;14.536;2023-04-09T05:29:09;97595.31;;;4.04;69.44
42847;BME280;28495;49.916;14.536;2023-04-09T05:34:30;97612.38;;;4.07;69.40
42847;BME280;28495;49.916;14.536;2023-04-09T05:39:50;97600.47;;;4.04;69.80
42847;BME280;28495;49.916;14.536;2023-04-09T05:45:11;97613.22;;;4.07;70.02
42847;BME280;28495;49.916;14.536;2023-04-09T05:50:40;97613.22;;;4.07;69.75
42847;BME280;28495;49.916;14.536;2023-04-09T05:56:17;97620.53;;;3.99;69.68
42847;BME280;28495;49.916;14.536;2023-04-09T06:01:44;97615.69;;;3.93;69.73
42847;BME280;28495;49.916;14.536;2023-04-09T06:07:05;97608.84;;;3.92;69.96
42847;BME280;28495;49.916;14.536;2023-04-09T06:12:25;97619.38;;;3.87;69.89
42847;BME280;28495;49.916;14.536;2023-04-09T06:17:46;97615.13;;;3.86;70.31
42847;BME280;28495;49.916;14.536;2023-04-09T06:23:07;97630.22;;;3.94;70.03
42847;BME280;28495;49.916;14.536;2023-04-09T06:28:28;97628.09;;;4.02;70.22
42847;BME280;28495;49.916;14.536;2023-04-09T06:33:49;97628.88;;;4.04;70.41
42847;BME280;28495;49.916;14.536;2023-04-09T06:39:10;97637.66;;;4.00;70.06
42847;BME280;28495;49.916;14.536;2023-04-09T06:44:32;97637.53;;;4.03;70.50
42847;BME280;28495;49.916;14.536;2023-04-09T06:49:53;97636.75;;;4.01;70.28
42847;BME280;28495;49.916;14.536;2023-04-09T06:55:14;97636.91;;;3.98;70.22
42847;BME280;28495;49.916;14.536;2023-04-09T07:00:34;97645.47;;;4.50;71.41
42847;BME280;28495;49.916;14.536;2023-04-09T07:05:56;97647.63;;;4.41;70.61
42847;BME280;28495;49.916;14.536;2023-04-09T07:11:17;97655.84;;;4.32;70.34
42847;BME280;28495;49.916;14.536;2023-04-09T07:16:38;97656.53;;;4.36;70.89
42847;BME280;28495;49.916;14.536;2023-04-09T07:21:59;97666.59;;;4.40;70.71
42847;BME280;28495;49.916;14.536;2023-04-09T07:27:24;97668.47;;;5.04;72.88
42847;BME280;28495;49.916;14.536;2023-04-09T07:32:45;97666.84;;;5.01;71.20
42847;BME280;28495;49.916;14.536;2023-04-09T07:38:06;97664.28;;;5.01;70.96
42847;BME280;28495;49.916;14.536;2023-04-09T07:43:27;97666.84;;;5.01;70.54
42847;BME280;28495;49.916;14.536;2023-04-09T07:48:48;97672.03;;;5.01;70.62
42847;BME280;28495;49.916;14.536;2023-04-09T07:54:10;97679.78;;;5.01;70.98
42847;BME280;28495;49.916;14.536;2023-04-09T07:59:33;97672.13;;;5.00;71.09
42847;BME280;28495;49.916;14.536;2023-04-09T08:04:54;97672.47;;;5.10;71.02
42847;BME280;28495;49.916;14.536;2023-04-09T08:10:15;97680.63;;;5.18;71.32
42847;BME280;28495;49.916;14.536;2023-04-09T08:15:36;97670.88;;;5.23;72.36
42847;BME280;28495;49.916;14.536;2023-04-09T08:20:57;97669.16;;;5.54;71.45
42847;BME280;28495;49.916;14.536;2023-04-09T08:26:17;97675.66;;;5.61;71.07
42847;BME280;28495;49.916;14.536;2023-04-09T08:31:38;97682.81;;;5.72;70.82
42847;BME280;28495;49.916;14.536;2023-04-09T08:36:59;97683.59;;;5.89;70.90
42847;BME280;28495;49.916;14.536;2023-04-09T08:42:21;97672.88;;;5.80;70.44
42847;BME280;28495;49.916;14.536;2023-04-09T08:47:44;97697.03;;;5.95;71.02
42847;BME280;28495;49.916;14.536;2023-04-09T08:53:07;97692.34;;;6.02;70.79
42847;BME280;28495;49.916;14.536;2023-04-09T08:58:28;97685.22;;;6.06;70.72
42847;BME280;28495;49.916;14.536;2023-04-09T09:03:59;97677.88;;;6.14;70.79
42847;BME280;28495;49.916;14.536;2023-04-09T09:09:21;97677.59;;;6.33;70.93
42847;BME280;28495;49.916;14.536;2023-04-09T09:14:41;97686.41;;;6.45;70.39
42847;BME280;28495;49.916;14.536;2023-04-09T09:20:18;97686.31;;;6.76;71.90
42847;BME280;28495;49.916;14.536;2023-04-09T09:25:40;97696.41;;;6.80;70.12
42847;BME280;28495;49.916;14.536;2023-04-09T09:31:09;97701.66;;;7.08;70.55
42847;BME280;28495;49.916;14.536;2023-04-09T09:36:32;97704.97;;;7.10;70.13
42847;BME280;28495;49.916;14.536;2023-04-09T09:42:06;97711.03;;;7.10;69.76
42847;BME280;28495;49.916;14.536;2023-04-09T09:47:28;97703.13;;;7.12;69.98
42847;BME280;28495;49.916;14.536;2023-04-09T09:52:50;97705.09;;;7.08;69.94
42847;BME280;28495;49.916;14.536;2023-04-09T09:58:22;97706.03;;;7.07;69.58
42847;BME280;28495;49.916;14.536;2023-04-09T10:03:45;97704.16;;;7.09;70.05
42847;BME280;28495;49.916;14.536;2023-04-09T10:09:06;97702.31;;;7.39;70.09
42847;BME280;28495;49.916;14.536;2023-04-09T10:14:27;97694.66;;;7.37;69.68
42847;BME280;28495;49.916;14.536;2023-04-09T10:20:13;97697.56;;;7.45;69.51
42847;BME280;28495;49.916;14.536;2023-04-09T10:25:35;97688.19;;;7.57;70.18
42847;BME280;28495;49.916;14.536;2023-04-09T10:30:57;97686.56;;;7.69;69.33
42847;BME280;28495;49.916;14.536;2023-04-09T10:36:18;97678.78;;;7.82;69.94
42847;BME280;28495;49.916;14.536;2023-04-09T10:41:42;97675.84;;;8.01;69.92
42847;BME280;28495;49.916;14.536;2023-04-09T10:47:04;97673.84;;;8.18;69.60
42847;BME280;28495;49.916;14.536;2023-04-09T10:52:29;97667.31;;;8.25;69.68
42847;BME280;28495;49.916;14.536;2023-04-09T10:57:50;97668.03;;;8.40;69.34
42847;BME280;28495;49.916;14.536;2023-04-09T11:03:27;97667.63;;;8.33;69.16
42847;BME280;28495;49.916;14.536;2023-04-09T11:08:52;97662.66;;;8.30;68.58
42847;BME280;28495;49.916;14.536;2023-04-09T11:14:18;97660.88;;;8.18;68.61
42847;BME280;28495;49.916;14.536;2023-04-09T11:19:40;97657.13;;;8.22;68.96
42847;BME280;28495;49.916;14.536;2023-04-09T11:25:01;97659.66;;;8.23;68.42
42847;BME280;28495;49.916;14.536;2023-04-09T11:30:22;97660.69;;;8.34;69.01
42847;BME280;28495;49.916;14.536;2023-04-09T11:35:43;97660.69;;;8.34;68.58
42847;BME280;28495;49.916;14.536;2023-04-09T11:41:04;97664.00;;;8.36;68.33
42847;BME280;28495;49.916;14.536;2023-04-09T11:46:25;97662.84;;;8.40;68.74
42847;BME280;28495;49.916;14.536;2023-04-09T11:51:47;97664.41;;;8.43;68.14
42847;BME280;28495;49.916;14.536;2023-04-09T11:57:07;97667.75;;;8.45;68.51
42847;BME280;28495;49.916;14.536;2023-04-09T12:02:28;97666.63;;;8.62;68.98
42847;BME280;28495;49.916;14.536;2023-04-09T12:07:50;97664.81;;;8.75;68.70
42847;BME280;28495;49.916;14.536;2023-04-09T12:13:14;97673.03;;;8.82;68.98
42847;BME280;28495;49.916;14.536;2023-04-09T12:18:38;97669.22;;;8.75;68.25
42847;BME280;28495;49.916;14.536;2023-04-09T12:23:59;97664.63;;;8.65;67.69
42847;BME280;28495;49.916;14.536;2023-04-09T12:29:21;97666.50;;;8.63;67.65
42847;BME280;28495;49.916;14.536;2023-04-09T12:34:42;97665.56;;;8.64;67.83
42847;BME280;28495;49.916;14.536;2023-04-09T12:40:03;97664.75;;;8.64;67.74
42847;BME280;28495;49.916;14.536;2023-04-09T12:45:24;97664.81;;;8.62;67.71
42847;BME280;28495;49.916;14.536;2023-04-09T12:50:46;97661.53;;;8.60;67.69
42847;BME280;28495;49.916;14.536;2023-04-09T12:56:07;97658.19;;;8.58;67.72
42847;BME280;28495;49.916;14.536;2023-04-09T13:01:28;97660.47;;;8.63;67.87
42847;BME280;28495;49.916;14.536;2023-04-09T13:06:49;97654.22;;;8.65;67.88
42847;BME280;28495;49.916;14.536;2023-04-09T13:12:09;97656.22;;;8.62;67.61
42847;BME280;28495;49.916;14.536;2023-04-09T13:17:34;97649.56;;;8.45;67.06
42847;BME280;28495;49.916;14.536;2023-04-09T13:22:55;97643.41;;;8.46;67.85
42847;BME280;28495;49.916;14.536;2023-04-09T13:28:16;97648.09;;;8.41;67.75
42847;BME280;28495;49.916;14.536;2023-04-09T13:33:37;97645.91;;;8.34;67.81
42847;BME280;28495;49.916;14.536;2023-04-09T13:38:58;97648.91;;;8.41;67.65
42847;BME280;28495;49.916;14.536;2023-04-09T13:44:24;97645.81;;;8.62;67.80
42847;BME280;28495;49.916;14.536;2023-04-09T13:49:46;97638.22;;;8.59;67.37
42847;BME280;28495;49.916;14.536;2023-04-09T13:55:07;97639.03;;;8.72;67.40
42847;BME280;28495;49.916;14.536;2023-04-09T14:00:30;97643.13;;;9.73;69.70
42847;BME280;28495;49.916;14.536;2023-04-09T14:05:51;97644.56;;;9.53;67.26
42847;BME280;28495;49.916;14.536;2023-04-09T14:11:12;97651.19;;;9.22;66.52
42847;BME280;28495;49.916;14.536;2023-04-09T14:16:37;97641.88;;;9.06;66.59
42847;BME280;28495;49.916;14.536;2023-04-09T14:21:58;97642.06;;;9.40;68.17
42847;BME280;28495;49.916;14.536;2023-04-09T14:27:19;97641.63;;;9.22;66.59
42847;BME280;28495;49.916;14.536;2023-04-09T14:32:39;97636.84;;;9.16;66.93
42847;BME280;28495;49.916;14.536;2023-04-09T14:38:00;97628.72;;;9.08;66.72
42847;BME280;28495;49.916;14.536;2023-04-09T14:43:24;97626.00;;;8.85;66.07
42847;BME280;28495;49.916;14.536;2023-04-09T14:48:45;97624.75;;;8.78;66.58
42847;BME280;28495;49.916;14.536;2023-04-09T14:54:05;97630.19;;;8.75;66.65
42847;BME280;28495;49.916;14.536;2023-04-09T14:59:27;97626.66;;;8.76;66.66
42847;BME280;28495;49.916;14.536;2023-04-09T15:04:47;97627.19;;;8.68;66.76
42847;BME280;28495;49.916;14.536;2023-04-09T15:10:08;97619.69;;;8.76;67.43
42847;BME280;28495;49.916;14.536;2023-04-09T15:15:30;97622.25;;;8.89;67.59
42847;BME280;28495;49.916;14.536;2023-04-09T15:20:51;97624.06;;;8.76;66.36
42847;BME280;28495;49.916;14.536;2023-04-09T15:26:12;97626.56;;;8.64;66.84
42847;BME280;28495;49.916;14.536;2023-04-09T15:31:33;97621.81;;;8.58;66.61
42847;BME280;28495;49.916;14.536;2023-04-09T15:36:53;97617.63;;;8.56;66.52
42847;BME280;28495;49.916;14.536;2023-04-09T15:42:14;97623.34;;;8.48;66.63
42847;BME280;28495;49.916;14.536;2023-04-09T15:47:39;97620.84;;;8.46;67.09
42847;BME280;28495;49.916;14.536;2023-04-09T15:53:00;97615.13;;;8.41;66.71
42847;BME280;28495;49.916;14.536;2023-04-09T15:58:21;97618.78;;;8.38;66.74
42847;BME280;28495;49.916;14.536;2023-04-09T16:03:41;97615.13;;;8.41;67.04
42847;BME280;28495;49.916;14.536;2023-04-09T16:09:02;97619.75;;;8.88;67.81
42847;BME280;28495;49.916;14.536;2023-04-09T16:14:23;97624.75;;;8.78;67.51
42847;BME280;28495;49.916;14.536;2023-04-09T16:19:44;97623.22;;;8.75;67.29
42847;BME280;28495;49.916;14.536;2023-04-09T16:25:05;97634.22;;;8.79;67.79
42847;BME280;28495;49.916;14.536;2023-04-09T16:30:26;97632.78;;;8.75;67.73
42847;BME280;28495;49.916;14.536;2023-04-09T16:35:46;97636.00;;;8.78;68.02
42847;BME280;28495;49.916;14.536;2023-04-09T16:41:08;97634.34;;;8.64;68.47
42847;BME280;28495;49.916;14.536;2023-04-09T16:46:28;97621.16;;;9.05;68.63
42847;BME280;28495;49.916;14.536;2023-04-09T16:51:49;97628.47;;;8.87;68.08
42847;BME280;28495;49.916;14.536;2023-04-09T16:57:13;97627.81;;;8.72;68.28
42847;BME280;28495;49.916;14.536;2023-04-09T17:02:34;97625.00;;;8.62;68.86
42847;BME280;28495;49.916;14.536;2023-04-09T17:07:56;97620.34;;;8.54;68.71
42847;BME280;28495;49.916;14.536;2023-04-09T17:13:17;97622.81;;;8.43;68.48
42847;BME280;28495;49.916;14.536;2023-04-09T17:18:37;97634.88;;;8.44;68.70
42847;BME280;28495;49.916;14.536;2023-04-09T17:23:58;97635.00;;;8.55;69.65
42847;BME280;28495;49.916;14.536;2023-04-09T17:29:21;97627.94;;;8.57;68.77
42847;BME280;28495;49.916;14.536;2023-04-09T17:34:46;97642.00;;;8.54;68.46
42847;BME280;28495;49.916;14.536;2023-04-09T17:40:07;97638.34;;;8.57;69.04
42847;BME280;28495;49.916;14.536;2023-04-09T17:45:28;97643.00;;;8.52;68.67
42847;BME280;28495;49.916;14.536;2023-04-09T17:50:49;97644.16;;;8.48;68.63
42847;BME280;28495;49.916;14.536;2023-04-09T17:56:16;97661.22;;;8.39;68.47
42847;BME280;28495;49.916;14.536;2023-04-09T18:01:37;97663.69;;;8.28;68.17
42847;BME280;28495;49.916;14.536;2023-04-09T18:06:58;97674.06;;;8.02;68.25
42847;BME280;28495;49.916;14.536;2023-04-09T18:12:18;97668.63;;;7.92;68.94
42847;BME280;28495;49.916;14.536;2023-04-09T18:17:40;97667.38;;;7.85;68.88
42847;BME280;28495;49.916;14.536;2023-04-09T18:23:01;97679.22;;;7.76;69.01
42847;BME280;28495;49.916;14.536;2023-04-09T18:28:22;97682.50;;;7.65;68.62
42847;BME280;28495;49.916;14.536;2023-04-09T18:33:43;97690.53;;;7.47;68.46
42847;BME280;28495;49.916;14.536;2023-04-09T18:39:04;97698.53;;;7.30;68.53
42847;BME280;28495;49.916;14.536;2023-04-09T18:44:25;97700.13;;;7.32;68.75
42847;BME280;28495;49.916;14.536;2023-04-09T18:49:45;97701.41;;;7.40;69.02
42847;BME280;28495;49.916;14.536;2023-04-09T18:55:07;97701.09;;;7.44;69.19
42847;BME280;28495;49.916;14.536;2023-04-09T19:00:28;97701.94;;;7.45;68.87
42847;BME280;28495;49.916;14.536;2023-04-09T19:05:50;97696.66;;;7.46;68.48
42847;BME280;28495;49.916;14.536;2023-04-09T19:11:12;97691.56;;;7.45;68.63
42847;BME280;28495;49.916;14.536;2023-04-09T19:16:34;97696.16;;;7.54;69.10
42847;BME280;28495;49.916;14.536;2023-04-09T19:21:54;97688.66;;;7.50;68.74
42847;BME280;28495;49.916;14.536;2023-04-09T19:27:15;97692.00;;;7.52;68.97
42847;BME280;28495;49.916;14.536;2023-04-09T19:32:37;97684.03;;;7.55;69.01
42847;BME280;28495;49.916;14.536;2023-04-09T19:37:58;97683.72;;;7.59;69.12
42847;BME280;28495;49.916;14.536;2023-04-09T19:43:22;97681.03;;;7.61;69.07
42847;BME280;28495;49.916;14.536;2023-04-09T19:48:43;97675.59;;;7.51;68.97
42847;BME280;28495;49.916;14.536;2023-04-09T19:54:04;97677.50;;;7.35;68.78
42847;BME280;28495;49.916;14.536;2023-04-09T19:59:25;97681.59;;;7.24;68.83
42847;BME280;28495;49.916;14.536;2023-04-09T20:04:46;97689.31;;;7.11;68.93
42847;BME280;28495;49.916;14.536;2023-04-09T20:10:07;97688.19;;;7.15;69.40
42847;BME280;28495;49.916;14.536;2023-04-09T20:15:30;97693.19;;;7.19;69.43
42847;BME280;28495;49.916;14.536;2023-04-09T20:20:50;97688.31;;;7.14;69.51
42847;BME280;28495;49.916;14.536;2023-04-09T20:26:12;97687.75;;;7.51;69.58
42847;BME280;28495;49.916;14.536;2023-04-09T20:31:34;97691.16;;;7.51;69.39
42847;BME280;28495;49.916;14.536;2023-04-09T20:36:55;97682.25;;;7.55;69.51
42847;BME280;28495;49.916;14.536;2023-04-09T20:42:17;97682.06;;;7.58;69.23
42847;BME280;28495;49.916;14.536;2023-04-09T20:47:37;97685.47;;;7.59;69.29
42847;BME280;28495;49.916;14.536;2023-04-09T20:52:58;97689.50;;;7.50;69.27
42847;BME280;28495;49.916;14.536;2023-04-09T20:58:19;97685.72;;;7.41;69.13
42847;BME280;28495;49.916;14.536;2023-04-09T21:03:40;97684.78;;;7.42;69.36
42847;BME280;28495;49.916;14.536;2023-04-09T21:09:01;97686.31;;;7.59;69.68
42847;BME280;28495;49.916;14.536;2023-04-09T21:14:22;97685.41;;;7.60;69.55
42847;BME280;28495;49.916;14.536;2023-04-09T21:19:43;97688.72;;;7.62;69.54
42847;BME280;28495;49.916;14.536;2023-04-09T21:25:04;97694.38;;;7.82;69.54
42847;BME280;28495;49.916;14.536;2023-04-09T21:30:25;97690.47;;;7.62;69.22
42847;BME280;28495;49.916;14.536;2023-04-09T21:35:50;97691.31;;;7.62;69.20
42847;BME280;28495;49.916;14.536;2023-04-09T21:41:11;97697.34;;;7.63;69.48
42847;BME280;28495;49.916;14.536;2023-04-09T21:46:33;97695.81;;;7.46;69.10
42847;BME280;28495;49.916;14.536;2023-04-09T21:51:55;97696.75;;;7.45;69.55
42847;BME280;28495;49.916;14.536;2023-04-09T21:57:18;97699.97;;;7.48;69.46
42847;BME280;28495;49.916;14.536;2023-04-09T22:02:39;97710.69;;;7.57;69.71
42847;BME280;28495;49.916;14.536;2023-04-09T22:08:01;97708.22;;;7.55;69.42
42847;BME280;28495;49.916;14.536;2023-04-09T22:13:22;97710.47;;;7.47;69.08
42847;BME280;28495;49.916;14.536;2023-04-09T22:18:43;97713.56;;;7.39;69.22
42847;BME280;28495;49.916;14.536;2023-04-09T22:24:04;97711.03;;;7.38;69.44
42847;BME280;28495;49.916;14.536;2023-04-09T22:29:26;97708.56;;;7.36;69.07
42847;BME280;28495;49.916;14.536;2023-04-09T22:34:47;97713.63;;;7.38;69.26
42847;BME280;28495;49.916;14.536;2023-04-09T22:40:08;97718.31;;;7.32;69.21
42847;BME280;28495;49.916;14.536;2023-04-09T22:45:33;97713.47;;;7.26;69.52
42847;BME280;28495;49.916;14.536;2023-04-09T22:50:55;97722.81;;;7.29;69.35
42847;BME280;28495;49.916;14.536;2023-04-09T22:56:17;97722.00;;;7.28;69.26
42847;BME280;28495;49.916;14.536;2023-04-09T23:01:39;97718.75;;;7.39;69.51
42847;BME280;28495;49.916;14.536;2023-04-09T23:07:00;97713.44;;;7.41;69.72
42847;BME280;28495;49.916;14.536;2023-04-09T23:12:21;97721.34;;;7.39;69.19
42847;BME280;28495;49.916;14.536;2023-04-09T23:17:42;97712.41;;;7.43;69.70
42847;BME280;28495;49.916;14.536;2023-04-09T23:23:03;97709.81;;;7.43;69.28
42847;BME280;28495;49.916;14.536;2023-04-09T23:28:24;97704.44;;;7.46;69.49
42847;BME280;28495;49.916;14.536;2023-04-09T23:33:45;97703.88;;;7.41;69.25
42847;BME280;28495;49.916;14.536;2023-04-09T23:39:06;97709.72;;;7.45;69.20
42847;BME280;28495;49.916;14.536;2023-04-09T23:44:26;97708.00;;;7.31;69.15
42847;BME280;28495;49.916;14.536;2023-04-09T23:49:47;97705.22;;;7.34;69.51
42847;BME280;28495;49.916;14.536;2023-04-09T23:55:08;97701.59;;;7.37;69.58
